Time;durP1;ratioP1;P1;durP2;ratioP2;P2;SDS_P1;SDS_P2;PMS_P1;PMS_P2;Temp;Humidity;BMP_temperature;BMP_pressure;BME280_temperature;BME280_humidity;BME280_pressure;Samples;Min_cycle;Max_cycle;Signal;HPM_P1;HPM_P2
2021/10/12 00:01:18;;;;;;;0.50;0.50;;;;;;;8.74;72.23;98777.81;5092232;28;20094;-63
2021/10/12 00:03:44;;;;;;;0.50;0.50;;;;;;;8.75;72.40;98776.75;5092772;28;20036;-63
2021/10/12 00:06:10;;;;;;;0.30;0.30;;;;;;;8.78;72.21;98775.47;5092310;28;20036;-64
2021/10/12 00:08:36;;;;;;;0.68;0.68;;;;;;;8.80;72.41;98786.19;5092661;28;20043;-62
2021/10/12 00:11:03;;;;;;;0.50;0.45;;;;;;;8.78;72.40;98780.94;5092614;28;20040;-64
2021/10/12 00:13:29;;;;;;;1.65;0.38;;;;;;;8.76;72.27;98786.66;5092636;28;20044;-64
2021/10/12 00:15:54;;;;;;;0.20;0.20;;;;;;;8.77;72.57;98785.59;5092711;28;20114;-63
2021/10/12 00:18:20;;;;;;;1.10;0.50;;;;;;;8.79;72.53;98789.97;5057752;28;20067;-63
2021/10/12 00:20:46;;;;;;;0.43;0.43;;;;;;;8.79;72.47;98787.25;5092373;28;20051;-64
2021/10/12 00:23:11;;;;;;;2.00;0.55;;;;;;;8.77;72.94;98788.34;5092386;28;20109;-64
2021/10/12 00:25:37;;;;;;;0.68;0.68;;;;;;;8.79;72.75;98788.09;5092561;28;20036;-64
2021/10/12 00:28:03;;;;;;;0.60;0.60;;;;;;;8.81;72.75;98785.13;5092478;28;20123;-64
2021/10/12 00:30:29;;;;;;;0.88;0.88;;;;;;;8.81;72.47;98796.91;5092012;28;20510;-64
2021/10/12 00:32:55;;;;;;;0.43;0.43;;;;;;;8.82;72.79;98801.34;5092351;28;20044;-64
2021/10/12 00:35:20;;;;;;;0.32;0.32;;;;;;;8.82;72.75;98797.75;5092435;28;20036;-63
2021/10/12 00:37:47;;;;;;;0.35;0.32;;;;;;;8.82;72.53;98797.75;5092302;28;20414;-65
2021/10/12 00:40:13;;;;;;;0.30;0.30;;;;;;;8.81;72.68;98804.31;5097479;28;20449;-65
2021/10/12 00:42:39;;;;;;;0.40;0.40;;;;;;;8.82;72.51;98797.75;5099100;28;20048;-65
2021/10/12 00:45:07;;;;;;;0.60;0.60;;;;;;;8.84;72.62;98801.94;5099005;28;20050;-62
2021/10/12 00:47:33;;;;;;;0.30;0.30;;;;;;;8.83;72.45;98807.66;5099054;28;20131;-63
2021/10/12 00:49:59;;;;;;;0.60;0.60;;;;;;;8.86;72.54;98805.31;5099029;28;20126;-63
2021/10/12 00:52:24;;;;;;;0.90;0.43;;;;;;;8.87;72.58;98808.88;5099007;28;20066;-63
2021/10/12 00:54:50;;;;;;;1.10;0.55;;;;;;;8.88;72.50;98807.84;5099091;28;20043;-62
2021/10/12 00:57:17;;;;;;;1.55;0.60;;;;;;;8.88;72.40;98805.09;5099212;28;20079;-62
2021/10/12 00:59:44;;;;;;;0.25;0.25;;;;;;;8.87;72.49;98806.16;5098337;28;20043;-61
2021/10/12 01:02:10;;;;;;;0.40;0.40;;;;;;;8.88;72.45;98813.31;5098742;28;20498;-62
2021/10/12 01:04:35;;;;;;;0.88;0.50;;;;;;;8.86;72.44;98804.47;5098757;28;20044;-62
2021/10/12 01:07:01;;;;;;;1.00;0.50;;;;;;;8.86;72.33;98812.66;5098988;28;20555;-65
2021/10/12 01:09:27;;;;;;;0.68;0.57;;;;;;;8.83;72.41;98808.47;5098558;28;20113;-63
2021/10/12 01:11:53;;;;;;;0.30;0.30;;;;;;;8.80;72.57;98811.66;5099046;28;20083;-63
2021/10/12 01:14:19;;;;;;;0.45;0.40;;;;;;;8.80;72.53;98814.41;5098902;28;20094;-64
2021/10/12 01:16:44;;;;;;;0.30;0.30;;;;;;;8.80;72.41;98810.84;5080365;28;20047;-62
2021/10/12 01:19:11;;;;;;;0.45;0.45;;;;;;;8.79;72.47;98803.69;5098956;28;20131;-62
2021/10/12 01:21:46;;;;;;;1.15;1.05;;;;;;;8.79;72.46;98815.47;5098593;28;20052;-60
2021/10/12 01:24:12;;;;;;;0.30;0.30;;;;;;;8.78;72.53;98816.53;5098641;28;20048;-62
2021/10/12 01:26:40;;;;;;;0.38;0.38;;;;;;;8.78;72.45;98816.53;5098652;28;20127;-62
2021/10/12 01:29:09;;;;;;;0.30;0.30;;;;;;;8.79;72.38;98820.09;5098167;28;20035;-61
2021/10/12 01:31:35;;;;;;;0.50;0.50;;;;;;;8.76;72.38;98824.97;5098430;28;20044;-62
2021/10/12 01:34:00;;;;;;;0.70;0.70;;;;;;;8.74;72.40;98828.97;5098745;28;20044;-61
2021/10/12 01:36:26;;;;;;;1.83;0.57;;;;;;;8.73;72.55;98828.16;5098624;28;20054;-62
2021/10/12 01:38:52;;;;;;;0.40;0.40;;;;;;;8.73;72.52;98841.00;5098684;28;20063;-61
2021/10/12 01:41:19;;;;;;;0.40;0.40;;;;;;;8.74;72.50;98832.56;5098410;28;20043;-63
2021/10/12 01:43:44;;;;;;;0.63;0.63;;;;;;;8.73;72.55;98833.63;5098349;28;20044;-61
2021/10/12 01:46:10;;;;;;;0.75;0.55;;;;;;;8.75;72.39;98847.09;5098076;28;20436;-61
2021/10/12 01:48:37;;;;;;;0.25;0.25;;;;;;;8.74;72.11;98843.50;5098461;28;20040;-61
2021/10/12 01:51:04;;;;;;;0.68;0.68;;;;;;;8.75;72.20;98845.19;5096043;28;20402;-62
2021/10/12 01:53:31;;;;;;;0.35;0.30;;;;;;;8.75;72.24;98847.94;5095175;28;20044;-61
2021/10/12 01:55:57;;;;;;;1.13;0.57;;;;;;;8.73;72.57;98852.78;5094967;28;20081;-62
2021/10/12 01:58:23;;;;;;;0.55;0.55;;;;;;;8.72;72.26;98851.09;5093987;28;20043;-65
2021/10/12 02:00:49;;;;;;;0.85;0.85;;;;;;;8.74;72.13;98853.63;5088177;28;20033;-64
2021/10/12 02:03:15;;;;;;;0.28;0.28;;;;;;;8.72;72.28;98862.06;5074565;28;20048;-64
2021/10/12 02:05:40;;;;;;;0.40;0.40;;;;;;;8.70;72.21;98853.25;5074807;28;20085;-64
2021/10/12 02:08:06;;;;;;;0.65;0.65;;;;;;;8.68;72.48;98846.31;5074823;28;20048;-64
2021/10/12 02:10:32;;;;;;;0.50;0.40;;;;;;;8.64;72.57;98859.56;5074311;28;20172;-64
2021/10/12 02:12:58;;;;;;;0.32;0.32;;;;;;;8.61;72.58;98862.75;5056007;28;20041;-64
2021/10/12 02:15:24;;;;;;;0.20;0.20;;;;;;;8.61;72.41;98868.25;5074050;28;20090;-64
2021/10/12 02:17:50;;;;;;;0.38;0.38;;;;;;;8.61;72.44;98872.88;5056345;28;20131;-66
2021/10/12 02:20:15;;;;;;;0.35;0.35;;;;;;;8.60;72.37;98874.78;5074332;28;20033;-65
2021/10/12 02:22:46;;;;;;;0.50;0.50;;;;;;;8.62;72.30;98875.41;5074143;28;20055;-66
2021/10/12 02:25:12;;;;;;;0.38;0.38;;;;;;;8.63;72.49;98882.56;5074302;28;20053;-64
2021/10/12 02:27:39;;;;;;;0.45;0.45;;;;;;;8.63;72.43;98874.34;5074188;28;20051;-64
2021/10/12 02:30:07;;;;;;;0.93;0.65;;;;;;;8.65;72.06;98893.28;5073726;28;20044;-64
2021/10/12 02:32:33;;;;;;;0.40;0.40;;;;;;;8.65;72.41;98880.44;5073969;28;20044;-64
2021/10/12 02:34:59;;;;;;;1.17;0.65;;;;;;;8.67;72.39;98878.31;5073883;28;20045;-64
2021/10/12 02:37:25;;;;;;;0.30;0.30;;;;;;;8.69;72.36;98883.56;5074450;28;20053;-64
2021/10/12 02:39:51;;;;;;;7.68;0.57;;;;;;;8.70;72.47;98887.97;5073942;28;20072;-64
2021/10/12 02:42:17;;;;;;;0.73;0.73;;;;;;;8.68;72.09;98879.16;5073882;28;20515;-64
2021/10/12 02:44:43;;;;;;;3.30;1.23;;;;;;;8.73;72.24;98882.91;5073843;28;20045;-64
2021/10/12 02:47:08;;;;;;;0.63;0.63;;;;;;;8.74;72.02;98897.44;5090900;28;20517;-65
2021/10/12 02:49:34;;;;;;;0.40;0.40;;;;;;;8.77;72.20;98895.09;5094293;28;20056;-64
2021/10/12 02:52:00;;;;;;;0.30;0.30;;;;;;;8.77;72.33;98892.38;5094366;28;20082;-65
2021/10/12 02:54:26;;;;;;;0.20;0.20;;;;;;;8.79;72.18;98896.75;5093892;28;20048;-65
2021/10/12 02:56:52;;;;;;;0.40;0.40;;;;;;;8.79;72.10;98896.75;5093750;28;20093;-65
2021/10/12 02:59:18;;;;;;;0.30;0.30;;;;;;;8.79;72.10;98899.50;5093230;28;20183;-65
2021/10/12 03:01:44;;;;;;;0.30;0.30;;;;;;;8.82;72.21;98894.44;5084398;28;20640;-64
2021/10/12 03:04:10;;;;;;;0.45;0.40;;;;;;;8.84;72.22;98894.22;5083509;28;20402;-66
2021/10/12 03:06:35;;;;;;;0.40;0.40;;;;;;;8.88;72.12;98895.44;5081890;28;20037;-65
2021/10/12 03:09:01;;;;;;;0.20;0.20;;;;;;;8.87;71.89;98899.25;5081910;28;20043;-65
2021/10/12 03:11:27;;;;;;;0.40;0.40;;;;;;;8.88;72.21;98903.66;5082671;28;20039;-65
2021/10/12 03:13:53;;;;;;;0.20;0.20;;;;;;;8.89;71.75;98894.38;5081148;28;20102;-65
2021/10/12 03:16:19;;;;;;;0.65;0.30;;;;;;;8.88;72.06;98901.75;5081995;28;20122;-64
2021/10/12 03:18:45;;;;;;;0.35;0.25;;;;;;;8.89;72.02;98902.59;5064871;28;20482;-67
2021/10/12 03:21:13;;;;;;;0.32;0.32;;;;;;;8.90;72.05;98913.31;5081325;28;20101;-67
2021/10/12 03:23:39;;;;;;;0.43;0.43;;;;;;;8.90;71.78;98905.09;5081882;28;20414;-67
2021/10/12 03:26:04;;;;;;;0.25;0.25;;;;;;;8.94;71.88;98903.59;5082749;28;20041;-64
2021/10/12 03:28:30;;;;;;;0.30;0.30;;;;;;;9.00;71.85;98907.34;5080572;28;20067;-64
2021/10/12 03:30:56;;;;;;;0.50;0.50;;;;;;;9.05;71.60;98909.41;5081569;28;20034;-64
2021/10/12 03:33:22;;;;;;;0.38;0.38;;;;;;;9.10;71.23;98913.19;5082401;28;20407;-64
2021/10/12 03:35:56;;;;;;;0.63;0.60;;;;;;;9.22;71.26;98910.56;5080642;28;20040;-64
2021/10/12 03:38:26;;;;;;;0.88;0.40;;;;;;;9.32;71.07;98904.56;5081236;28;20483;-64
2021/10/12 03:40:54;;;;;;;0.40;0.40;;;;;;;9.33;70.96;98905.41;5080876;28;20376;-65
2021/10/12 03:43:21;;;;;;;0.75;0.70;;;;;;;9.34;70.95;98899.69;5063308;28;20040;-67
2021/10/12 03:45:47;;;;;;;0.40;0.40;;;;;;;9.34;70.85;98921.63;5089461;28;20072;-64
2021/10/12 03:48:14;;;;;;;1.35;0.57;;;;;;;9.33;71.13;98898.00;5083263;28;20119;-65
2021/10/12 03:50:40;;;;;;;0.47;0.35;;;;;;;9.30;70.99;98914.91;5081571;28;20039;-63
2021/10/12 03:53:06;;;;;;;1.75;1.17;;;;;;;9.28;71.18;98906.09;5081727;28;20420;-65
2021/10/12 03:55:32;;;;;;;0.75;0.40;;;;;;;9.29;71.06;98907.78;5080411;28;20510;-64
2021/10/12 03:58:00;;;;;;;0.55;0.43;;;;;;;9.32;71.03;98907.31;5082326;28;20062;-66
2021/10/12 04:00:26;;;;;;;0.20;0.20;;;;;;;9.37;70.90;98912.94;5064867;28;20032;-64
2021/10/12 04:02:52;;;;;;;0.40;0.40;;;;;;;9.43;70.54;98906.56;5080956;28;20098;-67
2021/10/12 04:05:21;;;;;;;0.35;0.35;;;;;;;9.44;70.92;98908.25;5082528;28;20051;-65
2021/10/12 04:07:47;;;;;;;0.63;0.63;;;;;;;9.46;70.61;98924.47;5082936;28;20036;-65
2021/10/12 04:10:13;;;;;;;0.20;0.20;;;;;;;9.46;70.73;98927.22;5081114;28;20037;-64
2021/10/12 04:12:40;;;;;;;0.30;0.30;;;;;;;9.47;70.46;98926.16;5084844;28;20466;-64
2021/10/12 04:15:06;;;;;;;0.45;0.40;;;;;;;9.53;70.75;98921.69;5093246;28;20044;-64
2021/10/12 04:17:32;;;;;;;1.15;0.50;;;;;;;9.61;70.35;98924.09;5093620;28;20047;-65
2021/10/12 04:19:58;;;;;;;0.52;0.38;;;;;;;9.65;70.59;98925.34;5093276;28;20035;-64
2021/10/12 04:22:23;;;;;;;0.40;0.40;;;;;;;9.68;70.41;98921.31;5092875;28;20414;-65
2021/10/12 04:24:49;;;;;;;0.63;0.63;;;;;;;9.66;70.31;98918.81;5074826;28;20047;-65
2021/10/12 04:27:17;;;;;;;3.00;0.45;;;;;;;9.69;70.57;98912.88;5091402;28;20040;-65
2021/10/12 04:29:43;;;;;;;0.63;0.40;;;;;;;9.71;70.41;98921.69;5090128;28;20064;-65
2021/10/12 04:32:09;;;;;;;0.55;0.55;;;;;;;9.75;70.15;98924.84;5071925;28;20063;-65
2021/10/12 04:34:36;;;;;;;0.20;0.20;;;;;;;9.78;69.92;98933.44;5090303;28;20052;-63
2021/10/12 04:37:01;;;;;;;0.50;0.43;;;;;;;9.82;70.38;98925.59;5091464;28;20384;-65
2021/10/12 04:39:29;;;;;;;1.17;0.40;;;;;;;9.84;70.11;98917.16;5092001;28;20048;-65
2021/10/12 04:41:58;;;;;;;0.45;0.45;;;;;;;9.83;70.13;98930.00;5092579;28;20044;-65
2021/10/12 04:44:26;;;;;;;0.30;0.30;;;;;;;9.87;70.09;98933.97;5092920;28;20044;-64
2021/10/12 04:46:52;;;;;;;0.40;0.40;;;;;;;9.89;70.00;98950.19;5092518;28;20090;-63
2021/10/12 04:49:18;;;;;;;0.88;0.52;;;;;;;9.87;70.10;98949.59;5092373;28;20457;-64
2021/10/12 04:51:43;;;;;;;0.70;0.70;;;;;;;9.87;69.73;98944.13;5092465;28;20040;-65
2021/10/12 04:54:09;;;;;;;0.68;0.68;;;;;;;9.88;69.83;98957.59;5093139;28;20048;-65
2021/10/12 04:56:35;;;;;;;0.80;0.60;;;;;;;9.91;69.76;98954.41;5092508;28;20180;-63
2021/10/12 04:59:01;;;;;;;0.47;0.47;;;;;;;9.95;69.60;98952.88;5091927;28;20036;-64
2021/10/12 05:01:27;;;;;;;0.50;0.50;;;;;;;9.97;69.53;98953.50;5092319;28;20098;-65
2021/10/12 05:03:53;;;;;;;0.47;0.47;;;;;;;10.00;69.54;98952.19;5092037;28;20048;-65
2021/10/12 05:06:19;;;;;;;0.85;0.82;;;;;;;10.00;69.68;98955.78;5092570;28;20478;-64
2021/10/12 05:08:44;;;;;;;0.40;0.40;;;;;;;10.05;69.48;98955.09;5092317;28;20525;-64
2021/10/12 05:11:10;;;;;;;0.38;0.38;;;;;;;10.03;69.73;98956.41;5092160;28;20449;-64
2021/10/12 05:13:37;;;;;;;0.45;0.45;;;;;;;10.03;69.56;98957.22;5092417;28;20480;-64
2021/10/12 05:16:09;;;;;;;0.85;0.80;;;;;;;10.05;69.50;98966.06;5092678;28;20036;-67
2021/10/12 05:18:37;;;;;;;1.27;0.65;;;;;;;10.07;69.53;98966.69;5091838;28;20517;-64
2021/10/12 05:21:03;;;;;;;0.30;0.30;;;;;;;10.12;69.08;98975.06;5074676;28;20051;-64
2021/10/12 05:23:29;;;;;;;1.15;0.77;;;;;;;10.12;69.18;98977.81;5091876;28;20052;-65
2021/10/12 05:25:58;;;;;;;0.57;0.45;;;;;;;10.17;69.32;98979.84;5094194;28;20090;-64
2021/10/12 05:28:24;;;;;;;0.35;0.35;;;;;;;10.26;68.83;98972.16;5095851;28;20045;-64
2021/10/12 05:30:50;;;;;;;0.63;0.63;;;;;;;10.33;68.80;98983.91;5095377;28;20051;-64
2021/10/12 05:33:18;;;;;;;0.50;0.50;;;;;;;10.34;68.51;98975.47;5095824;28;20039;-65
2021/10/12 05:35:47;;;;;;;0.45;0.45;;;;;;;10.35;68.63;98976.34;5095513;28;20059;-64
2021/10/12 05:38:13;;;;;;;0.88;0.85;;;;;;;10.33;69.02;98983.91;5095958;28;20040;-64
2021/10/12 05:40:40;;;;;;;0.40;0.40;;;;;;;10.31;68.88;98978.66;5095985;28;20036;-64
2021/10/12 05:43:06;;;;;;;0.75;0.75;;;;;;;10.39;68.55;98982.19;5095794;28;20051;-64
2021/10/12 05:45:31;;;;;;;3.85;0.77;;;;;;;10.49;68.46;98986.06;5095596;28;20123;-64
2021/10/12 05:48:01;;;;;;;1.05;0.82;;;;;;;10.63;68.23;98988.63;5095651;28;20032;-65
2021/10/12 05:50:27;;;;;;;0.32;0.32;;;;;;;10.69;67.79;98987.72;5095566;28;20120;-64
2021/10/12 05:55:33;;;;;;;0.30;0.30;;;;;;;10.77;67.83;98994.81;5095557;28;20114;-65
2021/10/12 05:58:10;;;;;;;0.35;0.35;;;;;;;10.81;67.80;98996.84;5096054;28;20036;-65
2021/10/12 06:00:36;;;;;;;0.30;0.30;;;;;;;10.89;67.75;98992.94;5095151;28;20044;-64
2021/10/12 06:03:02;;;;;;;0.75;0.55;;;;;;;10.97;67.31;98998.13;5095236;28;20086;-64
2021/10/12 06:05:30;;;;;;;2.20;0.47;;;;;;;11.10;67.14;98991.59;5077359;28;20121;-66
2021/10/12 06:07:56;;;;;;;0.28;0.28;;;;;;;11.25;66.88;98990.31;5095484;28;20093;-65
2021/10/12 06:10:22;;;;;;;0.65;0.50;;;;;;;11.32;66.72;98994.66;5095005;28;20052;-65
2021/10/12 06:12:50;;;;;;;0.20;0.20;;;;;;;11.35;66.39;98996.94;5095117;28;20097;-64
2021/10/12 06:15:16;;;;;;;0.88;0.80;;;;;;;11.38;66.38;98999.19;5095076;28;20059;-65
2021/10/12 06:17:48;;;;;;;6.65;0.93;;;;;;;11.40;66.70;99001.72;5095604;28;20044;-67
2021/10/12 06:20:14;;;;;;;0.70;0.70;;;;;;;11.36;66.89;99006.00;5076613;28;20514;-64
2021/10/12 06:22:41;;;;;;;0.40;0.40;;;;;;;11.35;66.66;99002.44;5095006;28;20086;-64
2021/10/12 06:25:07;;;;;;;1.05;0.60;;;;;;;11.37;66.61;99002.19;5094766;28;20418;-63
2021/10/12 06:27:33;;;;;;;0.43;0.43;;;;;;;11.37;66.78;99000.25;5095081;28;20039;-63
2021/10/12 06:29:58;;;;;;;5.63;1.30;;;;;;;11.45;66.42;99012.00;5094647;28;20040;-65
2021/10/12 06:32:24;;;;;;;1.85;0.90;;;;;;;11.54;66.36;99011.44;5094711;28;20491;-64
2021/10/12 06:34:50;;;;;;;1.27;0.75;;;;;;;11.62;65.93;99020.41;5094660;28;20051;-64
2021/10/12 06:37:15;;;;;;;0.85;0.52;;;;;;;11.65;65.77;99017.19;5075560;28;20047;-64
2021/10/12 06:39:44;;;;;;;0.40;0.40;;;;;;;11.66;65.79;99022.47;5094262;28;20608;-66
2021/10/12 06:42:09;;;;;;;1.08;0.50;;;;;;;11.73;65.96;99033.34;5094660;28;20117;-64
2021/10/12 06:44:36;;;;;;;0.25;0.25;;;;;;;11.83;65.56;99030.00;5094451;28;20087;-63
2021/10/12 06:47:01;;;;;;;0.75;0.57;;;;;;;11.95;65.59;99033.63;5094604;28;20036;-64
2021/10/12 06:49:35;;;;;;;0.65;0.65;;;;;;;12.05;65.32;99024.78;5094495;28;20043;-68
2021/10/12 06:52:01;;;;;;;0.95;0.68;;;;;;;12.09;65.22;99039.75;5094788;28;20090;-65
2021/10/12 06:54:27;;;;;;;0.40;0.40;;;;;;;12.08;65.30;99038.88;5093924;28;20531;-65
2021/10/12 06:56:56;;;;;;;0.55;0.30;;;;;;;12.08;65.21;99038.06;5094246;28;20040;-66
2021/10/12 06:59:24;;;;;;;0.20;0.20;;;;;;;12.09;64.97;99037.81;5093534;28;20046;-68
2021/10/12 07:01:51;;;;;;;1.95;0.70;;;;;;;12.16;65.00;99043.22;5094430;28;20040;-64
2021/10/12 07:04:17;;;;;;;0.73;0.60;;;;;;;12.17;64.93;99038.53;5094186;28;20548;-66
2021/10/12 07:06:43;;;;;;;1.33;1.08;;;;;;;12.16;64.94;99043.22;5093999;28;20513;-65
2021/10/12 07:09:10;;;;;;;0.95;0.65;;;;;;;12.16;65.04;99040.47;5093826;28;20044;-64
2021/10/12 07:11:36;;;;;;;2.90;1.42;;;;;;;12.17;64.83;99041.28;5094108;28;20483;-64
2021/10/12 07:14:03;;;;;;;0.20;0.20;;;;;;;12.21;64.80;99034.25;5093977;28;20093;-65
2021/10/12 07:16:28;;;;;;;0.30;0.30;;;;;;;12.29;64.48;99060.56;5093853;28;20044;-63
2021/10/12 07:18:54;;;;;;;1.08;0.32;;;;;;;12.38;64.28;99056.34;5093848;28;20042;-65
2021/10/12 07:21:20;;;;;;;0.73;0.73;;;;;;;12.46;64.06;99053.25;5042171;28;20047;-65
2021/10/12 07:23:46;;;;;;;0.30;0.30;;;;;;;12.45;64.25;99057.06;5093307;28;20072;-63
2021/10/12 07:26:11;;;;;;;0.20;0.20;;;;;;;12.42;64.36;99063.88;5093655;28;20051;-65
2021/10/12 07:28:37;;;;;;;1.15;0.30;;;;;;;12.42;64.47;99063.06;5094218;28;20044;-68
2021/10/12 07:31:04;;;;;;;0.60;0.60;;;;;;;12.40;64.22;99062.47;5093221;28;20036;-67
2021/10/12 07:33:33;;;;;;;0.50;0.50;;;;;;;12.35;64.25;99062.34;5074960;28;20405;-64
2021/10/12 07:35:58;;;;;;;0.30;0.30;;;;;;;12.31;64.57;99073.00;5093279;28;20090;-64
2021/10/12 07:38:24;;;;;;;0.45;0.45;;;;;;;12.30;64.38;99073.25;5058580;28;20131;-64
2021/10/12 07:40:55;;;;;;;0.82;0.63;;;;;;;12.24;64.40;99081.38;5093338;28;20044;-65
2021/10/12 07:43:21;;;;;;;0.20;0.20;;;;;;;12.21;64.84;99081.03;5093186;28;20043;-64
2021/10/12 07:45:48;;;;;;;0.50;0.50;;;;;;;12.20;64.84;99079.34;5093575;28;20073;-64
2021/10/12 07:48:16;;;;;;;0.30;0.30;;;;;;;12.20;64.86;99080.19;5092879;28;20434;-64
2021/10/12 07:50:42;;;;;;;0.43;0.43;;;;;;;12.21;64.71;99081.88;5074747;28;20067;-64
2021/10/12 07:53:08;;;;;;;0.35;0.35;;;;;;;12.22;64.35;99083.56;5093010;28;20044;-65
2021/10/12 07:55:40;;;;;;;0.28;0.28;;;;;;;12.29;64.46;99093.59;5093173;28;20127;-66
2021/10/12 07:58:06;;;;;;;0.28;0.28;;;;;;;12.34;64.00;99094.56;5093512;28;20044;-65
2021/10/12 08:00:32;;;;;;;0.52;0.52;;;;;;;12.36;64.36;99080.56;5074297;28;20032;-65
2021/10/12 08:03:02;;;;;;;0.55;0.55;;;;;;;12.30;64.10;99078.75;5092807;28;20051;-64
2021/10/12 08:05:29;;;;;;;0.70;0.32;;;;;;;12.21;64.35;99084.63;5093257;28;20054;-64
2021/10/12 08:07:56;;;;;;;0.68;0.45;;;;;;;12.21;64.47;99075.53;5091608;28;20122;-64
2021/10/12 08:10:22;;;;;;;0.20;0.20;;;;;;;12.23;64.20;99088.00;5092830;28;20050;-64
2021/10/12 08:12:54;;;;;;;1.55;0.75;;;;;;;12.21;64.08;99084.63;5092943;28;20040;-63
2021/10/12 08:15:20;;;;;;;0.90;0.50;;;;;;;12.29;63.98;99105.44;5092812;28;20043;-65
2021/10/12 08:17:47;;;;;;;0.63;0.40;;;;;;;12.32;64.23;99102.22;5092618;28;20044;-64
2021/10/12 08:20:14;;;;;;;0.30;0.30;;;;;;;12.39;63.95;99097.41;5093002;28;20055;-65
2021/10/12 08:22:40;;;;;;;0.43;0.30;;;;;;;12.49;63.43;99093.25;5092565;28;20052;-65
2021/10/12 08:25:08;;;;;;;0.70;0.70;;;;;;;12.56;63.67;99104.97;5092653;28;20040;-66
2021/10/12 08:27:38;;;;;;;0.70;0.55;;;;;;;12.65;63.42;99097.16;5092969;28;20036;-65
2021/10/12 08:30:05;;;;;;;0.88;0.63;;;;;;;12.70;63.21;99106.38;5074082;28;20136;-64
2021/10/12 08:32:31;;;;;;;0.63;0.63;;;;;;;12.71;63.06;99110.00;5092572;28;20044;-65
2021/10/12 08:34:57;;;;;;;0.20;0.20;;;;;;;12.71;63.17;99110.00;5092344;28;20482;-64
2021/10/12 08:37:26;;;;;;;0.32;0.32;;;;;;;12.71;63.34;99112.75;5092488;28;20040;-65
2021/10/12 08:39:52;;;;;;;0.20;0.20;;;;;;;12.75;62.92;99116.66;5092932;28;20123;-65
2021/10/12 08:42:27;;;;;;;0.25;0.25;;;;;;;12.78;62.84;99107.94;5074283;28;20127;-65
2021/10/12 08:45:05;;;;;;;0.30;0.30;;;;;;;12.76;63.08;99110.94;5092495;28;20048;-66
2021/10/12 08:47:33;;;;;;;0.35;0.35;;;;;;;12.77;63.16;99112.59;5092644;28;20036;-63
2021/10/12 08:50:00;;;;;;;0.28;0.28;;;;;;;12.84;62.74;99111.63;5071615;28;20105;-64
2021/10/12 08:52:26;;;;;;;0.50;0.50;;;;;;;12.86;62.69;99115.81;5074538;28;20036;-65
2021/10/12 08:54:54;;;;;;;0.17;0.17;;;;;;;12.99;62.40;99111.16;5091682;28;20063;-64
2021/10/12 08:57:31;;;;;;;0.60;0.40;;;;;;;13.00;62.22;99105.38;5091830;28;20044;-65
2021/10/12 08:59:59;;;;;;;0.60;0.60;;;;;;;12.99;62.33;99113.91;5092375;28;20072;-66
2021/10/12 09:02:26;;;;;;;0.17;0.17;;;;;;;12.98;62.25;99118.56;5096226;28;20036;-63
2021/10/12 09:04:53;;;;;;;0.57;0.40;;;;;;;13.03;62.52;99115.06;5096169;28;20499;-65
2021/10/12 09:07:22;;;;;;;0.30;0.30;;;;;;;13.06;62.22;99120.09;5096494;28;20059;-64
2021/10/12 09:09:49;;;;;;;0.55;0.55;;;;;;;13.06;62.11;99117.34;5095784;28;20047;-65
2021/10/12 09:12:16;;;;;;;0.30;0.30;;;;;;;13.07;62.29;99124.53;5095988;28;20044;-64
2021/10/12 09:14:55;;;;;;;0.70;0.70;;;;;;;13.11;62.15;99115.53;5095810;28;20040;-64
2021/10/12 09:17:31;;;;;;;0.75;0.40;;;;;;;13.18;61.99;99111.81;5096411;28;20036;-65
2021/10/12 09:19:59;;;;;;;0.30;0.30;;;;;;;13.24;61.62;99117.16;5095791;28;20055;-64
2021/10/12 09:22:25;;;;;;;0.98;0.57;;;;;;;13.26;61.82;99123.25;5095531;28;20530;-65
2021/10/12 09:24:51;;;;;;;1.48;0.60;;;;;;;13.26;61.74;99126.03;5095957;28;20165;-66
2021/10/12 09:27:20;;;;;;;0.73;0.73;;;;;;;13.27;61.92;99126.88;5095760;28;20068;-65
2021/10/12 09:29:49;;;;;;;4.68;0.73;;;;;;;13.23;62.02;99131.19;5095449;28;20051;-64
2021/10/12 09:32:16;;;;;;;0.47;0.47;;;;;;;13.15;62.10;99124.16;5095671;28;20422;-64
2021/10/12 09:34:45;;;;;;;0.63;0.63;;;;;;;13.13;62.20;99121.66;5095568;28;20529;-64
2021/10/12 09:37:15;;;;;;;0.40;0.40;;;;;;;13.12;61.82;99119.13;5095477;28;20175;-66
2021/10/12 09:39:47;;;;;;;2.55;0.57;;;;;;;13.14;61.83;99134.31;5095463;28;20040;-67
2021/10/12 09:42:17;;;;;;;0.30;0.30;;;;;;;13.19;61.70;99119.84;5095869;28;20036;-66
2021/10/12 09:44:58;;;;;;;0.40;0.40;;;;;;;13.20;61.68;99126.19;5095404;28;20040;-65
2021/10/12 09:47:25;;;;;;;1.10;0.47;;;;;;;13.09;61.88;99131.47;5095077;28;20093;-66
2021/10/12 09:50:06;;;;;;;0.50;0.50;;;;;;;13.06;61.93;99131.13;5095785;28;20078;-65
2021/10/12 09:52:41;;;;;;;0.35;0.32;;;;;;;13.05;62.12;99127.53;5079646;28;20131;-67
2021/10/12 09:55:08;;;;;;;0.77;0.77;;;;;;;13.01;61.96;99128.25;5083861;28;20044;-65
2021/10/12 09:57:36;;;;;;;0.30;0.30;;;;;;;12.97;62.04;99127.94;5093552;28;20044;-66
2021/10/12 10:00:02;;;;;;;0.50;0.50;;;;;;;12.91;62.08;99128.88;5092813;28;20040;-65
2021/10/12 10:02:28;;;;;;;1.23;0.73;;;;;;;12.87;61.97;99130.47;5081941;28;20040;-66
2021/10/12 10:04:54;;;;;;;0.20;0.20;;;;;;;12.85;61.90;99141.69;5067342;28;20488;-71
2021/10/12 10:07:20;;;;;;;0.20;0.20;;;;;;;12.82;62.12;99136.66;5092812;28;20134;-68
2021/10/12 10:09:47;;;;;;;0.52;0.52;;;;;;;12.81;62.06;99132.25;5078638;28;20094;-66
2021/10/12 10:12:13;;;;;;;0.43;0.43;;;;;;;12.79;61.72;99132.50;5070850;28;20155;-65
2021/10/12 10:14:39;;;;;;;0.38;0.38;;;;;;;12.81;61.62;99135.03;5081125;28;20648;-65
2021/10/12 10:17:09;;;;;;;0.40;0.22;;;;;;;12.85;61.56;99132.59;5072605;28;20044;-67
2021/10/12 10:19:42;;;;;;;0.60;0.47;;;;;;;12.87;61.34;99141.47;5080324;28;20040;-66
2021/10/12 10:22:08;;;;;;;0.22;0.22;;;;;;;12.87;61.48;99139.56;5080362;28;20541;-65
2021/10/12 10:24:33;;;;;;;0.68;0.40;;;;;;;12.89;61.27;99148.41;5075670;28;20036;-65
2021/10/12 10:27:00;;;;;;;0.30;0.30;;;;;;;12.87;61.19;99136.81;5075869;28;20040;-65
2021/10/12 10:29:27;;;;;;;0.32;0.32;;;;;;;12.84;61.43;99142.81;5070881;28;20114;-65
2021/10/12 10:31:59;;;;;;;0.22;0.22;;;;;;;12.84;61.36;99140.03;5082770;28;20028;-64
2021/10/12 10:35:01;;;;;;;3.30;0.47;;;;;;;12.85;61.27;99141.69;5065713;28;20083;-66
2021/10/12 10:38:06;;;;;;;0.25;0.25;;;;;;;12.84;61.24;99142.81;5078298;28;20099;-66
2021/10/12 10:40:46;;;;;;;;;;;;;;;12.82;61.27;99142.19;5092433;28;20141;-65
2021/10/12 10:43:12;;;;;;;0.70;0.63;;;;;;;12.83;60.98;99152.13;5067361;28;19916;-65
2021/10/12 10:45:44;;;;;;;0.30;0.30;;;;;;;12.85;61.13;99141.69;5079403;28;20032;-65
2021/10/12 10:48:13;;;;;;;1.05;0.73;;;;;;;12.84;61.04;99142.81;5082102;28;20090;-64
2021/10/12 10:50:38;;;;;;;1.02;0.52;;;;;;;12.84;60.92;99144.69;5084058;28;20040;-66
2021/10/12 10:53:09;;;;;;;0.68;0.40;;;;;;;12.80;60.92;99147.09;5073226;28;20526;-65
2021/10/12 10:55:38;;;;;;;0.30;0.30;;;;;;;12.77;60.97;99142.09;5072942;28;20074;-64
2021/10/12 10:58:17;;;;;;;3.00;0.75;;;;;;;12.72;61.23;99140.06;5075645;28;20048;-66
2021/10/12 11:00:46;;;;;;;0.82;0.70;;;;;;;12.69;61.04;99142.44;5077779;28;20483;-65
2021/10/12 11:03:31;;;;;;;0.40;0.40;;;;;;;12.65;61.09;99146.75;5073510;28;20052;-65
2021/10/12 11:06:01;;;;;;;0.60;0.57;;;;;;;12.61;61.03;99140.91;5076956;28;20071;-67
2021/10/12 11:08:34;;;;;;;1.00;0.70;;;;;;;12.61;61.06;99143.66;5079665;28;20104;-65
2021/10/12 11:11:06;;;;;;;0.85;0.40;;;;;;;12.60;60.74;99145.56;5076470;28;20376;-66
2021/10/12 11:17:36;;;;;;;0.20;0.20;;;;;;;12.54;60.64;99153.94;5075467;28;20090;-65
2021/10/12 11:20:06;;;;;;;;;;;;;;;12.44;60.88;99155.38;5075319;28;20127;-66
2021/10/12 11:22:32;;;;;;;0.20;0.20;;;;;;;12.39;60.87;99157.19;5064476;28;20026;-65
2021/10/12 11:24:57;;;;;;;0.38;0.38;;;;;;;12.37;61.15;99170.34;5075076;28;20127;-65
2021/10/12 11:27:23;;;;;;;0.30;0.30;;;;;;;12.34;61.24;99163.41;5058039;28;20046;-64
2021/10/12 11:30:09;;;;;;;0.75;0.30;;;;;;;12.32;61.14;99159.19;5071653;28;20043;-65
2021/10/12 11:33:15;;;;;;;0.60;0.60;;;;;;;12.25;61.22;99156.56;5070121;28;20139;-66
2021/10/12 11:36:01;;;;;;;;;;;;;;;12.16;61.34;99164.34;5076335;28;20036;-66
2021/10/12 11:39:09;;;;;;;0.20;0.20;;;;;;;12.08;61.15;99162.75;5052544;28;19923;-64
2021/10/12 11:49:02;;;;;;;0.32;0.32;;;;;;;11.92;61.37;99175.25;5089271;28;20039;-65
2021/10/12 11:51:47;;;;;;;;;;;;;;;11.90;61.52;99173.81;5066305;28;20050;-66
2021/10/12 12:08:32;;;;;;;0.43;0.43;;;;;;;11.66;61.26;99184.75;5089079;28;20091;-67
2021/10/12 12:10:58;;;;;;;;;;;;;;;11.59;61.27;99195.00;5088208;28;20089;-68